sensor_id;sensor_type;location;lat;lon;timestamp;temperature;humidity
1361;DHT22;674;45.552;-122.600;2023-05-10T00:01:45;18.00;1.00
1361;DHT22;674;45.552;-122.600;2023-05-10T00:04:13;18.10;1.00
1361;DHT22;674;45.552;-122.600;2023-05-10T00:06:42;18.10;1.00
1361;DHT22;674;45.552;-122.600;2023-05-10T00:09:10;18.20;1.00
1361;DHT22;674;45.552;-122.600;2023-05-10T00:11:41;18.10;1.00
1361;DHT22;674;45.552;-122.600;2023-05-10T00:14:11;18.20;1.00
1361;DHT22;674;45.552;-122.600;2023-05-10T00:16:40;18.40;1.00
1361;DHT22;674;45.552;-122.600;2023-05-10T00:19:08;18.30;1.00
1361;DHT22;674;45.552;-122.600;2023-05-10T00:21:37;18.40;1.00
1361;DHT22;674;45.552;-122.600;2023-05-10T00:24:05;18.40;1.00
1361;DHT22;674;45.552;-122.600;2023-05-10T00:26:34;18.20;1.00
1361;DHT22;674;45.552;-122.600;2023-05-10T00:29:02;18.30;1.00
1361;DHT22;674;45.552;-122.600;2023-05-10T00:31:31;18.30;1.00
1361;DHT22;674;45.552;-122.600;2023-05-10T00:33:59;18.40;1.00
1361;DHT22;674;45.552;-122.600;2023-05-10T00:36:27;18.40;1.00
1361;DHT22;674;45.552;-122.600;2023-05-10T00:38:56;18.40;1.00
1361;DHT22;674;45.552;-122.600;2023-05-10T00:41:24;18.30;1.00
1361;DHT22;674;45.552;-122.600;2023-05-10T00:43:53;18.40;1.00
1361;DHT22;674;45.552;-122.600;2023-05-10T00:46:21;18.40;1.00
1361;DHT22;674;45.552;-122.600;2023-05-10T00:48:50;18.50;1.00
1361;DHT22;674;45.552;-122.600;2023-05-10T00:51:18;18.60;1.00
1361;DHT22;674;45.552;-122.600;2023-05-10T00:53:47;18.60;1.00
1361;DHT22;674;45.552;-122.600;2023-05-10T00:56:16;18.50;1.00
1361;DHT22;674;45.552;-122.600;2023-05-10T00:58:44;18.40;1.00
1361;DHT22;674;45.552;-122.600;2023-05-10T01:01:13;18.50;1.00
1361;DHT22;674;45.552;-122.600;2023-05-10T01:03:42;18.70;1.00
1361;DHT22;674;45.552;-122.600;2023-05-10T01:06:10;18.80;1.00
1361;DHT22;674;45.552;-122.600;2023-05-10T01:08:39;18.60;1.00
1361;DHT22;674;45.552;-122.600;2023-05-10T01:11:08;18.70;1.00
1361;DHT22;674;45.552;-122.600;2023-05-10T01:13:38;18.70;1.00
1361;DHT22;674;45.552;-122.600;2023-05-10T01:16:07;18.60;1.00
1361;DHT22;674;45.552;-122.600;2023-05-10T01:18:39;18.60;1.00
1361;DHT22;674;45.552;-122.600;2023-05-10T01:21:43;18.80;1.00
1361;DHT22;674;45.552;-122.600;2023-05-10T01:38:50;18.40;1.00
1361;DHT22;674;45.552;-122.600;2023-05-10T01:44:51;18.60;1.00
1361;DHT22;674;45.552;-122.600;2023-05-10T01:47:10;18.60;1.00
1361;DHT22;674;45.552;-122.600;2023-05-10T01:49:50;18.50;1.00
1361;DHT22;674;45.552;-122.600;2023-05-10T01:52:25;18.30;1.00
1361;DHT22;674;45.552;-122.600;2023-05-10T01:55:00;18.30;1.00
1361;DHT22;674;45.552;-122.600;2023-05-10T01:57:34;18.30;1.00
1361;DHT22;674;45.552;-122.600;2023-05-10T02:00:04;18.20;1.00
1361;DHT22;674;45.552;-122.600;2023-05-10T02:02:44;18.10;1.00
1361;DHT22;674;45.552;-122.600;2023-05-10T02:05:15;17.90;1.00
1361;DHT22;674;45.552;-122.600;2023-05-10T02:07:44;18.10;1.00
1361;DHT22;674;45.552;-122.600;2023-05-10T02:10:13;18.10;1.00
1361;DHT22;674;45.552;-122.600;2023-05-10T02:12:44;18.10;1.00
1361;DHT22;674;45.552;-122.600;2023-05-10T02:15:18;17.90;1.00
1361;DHT22;674;45.552;-122.600;2023-05-10T02:17:48;17.90;1.00
1361;DHT22;674;45.552;-122.600;2023-05-10T02:20:18;17.90;1.00
1361;DHT22;674;45.552;-122.600;2023-05-10T02:22:50;17.80;1.00
1361;DHT22;674;45.552;-122.600;2023-05-10T02:25:21;17.80;1.00
1361;DHT22;674;45.552;-122.600;2023-05-10T02:27:51;17.80;1.00
1361;DHT22;674;45.552;-122.600;2023-05-10T02:30:22;17.70;1.00
1361;DHT22;674;45.552;-122.600;2023-05-10T02:32:52;17.60;1.00
1361;DHT22;674;45.552;-122.600;2023-05-10T02:35:22;17.70;1.00
1361;DHT22;674;45.552;-122.600;2023-05-10T02:37:52;17.60;1.00
1361;DHT22;674;45.552;-122.600;2023-05-10T02:40:23;17.60;1.00
1361;DHT22;674;45.552;-122.600;2023-05-10T02:42:56;17.60;1.00
1361;DHT22;674;45.552;-122.600;2023-05-10T02:45:29;17.40;1.00
1361;DHT22;674;45.552;-122.600;2023-05-10T02:47:58;17.40;1.00
1361;DHT22;674;45.552;-122.600;2023-05-10T02:50:28;17.40;1.00
1361;DHT22;674;45.552;-122.600;2023-05-10T02:53:03;17.40;1.00
1361;DHT22;674;45.552;-122.600;2023-05-10T02:55:40;17.20;1.00
1361;DHT22;674;45.552;-122.600;2023-05-10T02:58:11;17.20;1.00
1361;DHT22;674;45.552;-122.600;2023-05-10T03:00:39;17.10;1.00
1361;DHT22;674;45.552;-122.600;2023-05-10T03:03:08;17.10;1.00
1361;DHT22;674;45.552;-122.600;2023-05-10T03:05:36;17.00;1.00
1361;DHT22;674;45.552;-122.600;2023-05-10T03:08:05;16.90;1.00
1361;DHT22;674;45.552;-122.600;2023-05-10T03:10:41;16.80;1.00
1361;DHT22;674;45.552;-122.600;2023-05-10T03:13:16;16.70;1.00
1361;DHT22;674;45.552;-122.600;2023-05-10T03:16:06;16.70;1.00
1361;DHT22;674;45.552;-122.600;2023-05-10T03:18:54;16.40;1.00
1361;DHT22;674;45.552;-122.600;2023-05-10T03:21:29;16.30;1.00
1361;DHT22;674;45.552;-122.600;2023-05-10T03:24:07;16.20;1.00
1361;DHT22;674;45.552;-122.600;2023-05-10T03:26:37;15.90;1.00
1361;DHT22;674;45.552;-122.600;2023-05-10T03:29:06;15.90;1.00
1361;DHT22;674;45.552;-122.600;2023-05-10T03:31:36;15.80;1.00
1361;DHT22;674;45.552;-122.600;2023-05-10T03:34:06;15.80;1.00
1361;DHT22;674;45.552;-122.600;2023-05-10T03:36:35;15.50;1.00
1361;DHT22;674;45.552;-122.600;2023-05-10T03:39:03;15.30;1.00
1361;DHT22;674;45.552;-122.600;2023-05-10T03:41:32;15.30;1.00
1361;DHT22;674;45.552;-122.600;2023-05-10T03:44:00;15.20;1.00
1361;DHT22;674;45.552;-122.600;2023-05-10T03:46:29;14.80;1.00
1361;DHT22;674;45.552;-122.600;2023-05-10T03:48:57;14.90;1.00
1361;DHT22;674;45.552;-122.600;2023-05-10T03:51:25;15.00;1.00
1361;DHT22;674;45.552;-122.600;2023-05-10T03:53:55;14.80;1.00
1361;DHT22;674;45.552;-122.600;2023-05-10T03:56:24;14.70;1.00
1361;DHT22;674;45.552;-122.600;2023-05-10T03:58:52;14.60;1.00
1361;DHT22;674;45.552;-122.600;2023-05-10T04:01:20;14.40;1.00
1361;DHT22;674;45.552;-122.600;2023-05-10T04:03:49;14.30;1.00
1361;DHT22;674;45.552;-122.600;2023-05-10T04:06:17;14.40;1.00
1361;DHT22;674;45.552;-122.600;2023-05-10T04:08:46;14.30;1.00
1361;DHT22;674;45.552;-122.600;2023-05-10T04:11:14;14.10;1.00
1361;DHT22;674;45.552;-122.600;2023-05-10T04:13:42;14.10;1.00
1361;DHT22;674;45.552;-122.600;2023-05-10T04:16:11;13.90;1.00
1361;DHT22;674;45.552;-122.600;2023-05-10T04:18:39;13.90;1.00
1361;DHT22;674;45.552;-122.600;2023-05-10T04:21:14;13.80;1.00
1361;DHT22;674;45.552;-122.600;2023-05-10T04:23:42;13.70;1.00
1361;DHT22;674;45.552;-122.600;2023-05-10T04:26:11;13.70;1.00
1361;DHT22;674;45.552;-122.600;2023-05-10T04:28:39;13.70;1.00
1361;DHT22;674;45.552;-122.600;2023-05-10T04:31:10;13.60;1.00
1361;DHT22;674;45.552;-122.600;2023-05-10T04:33:38;13.60;1.00
1361;DHT22;674;45.552;-122.600;2023-05-10T04:36:07;13.60;1.00
1361;DHT22;674;45.552;-122.600;2023-05-10T04:38:35;13.50;1.00
1361;DHT22;674;45.552;-122.600;2023-05-10T04:41:12;13.50;1.00
1361;DHT22;674;45.552;-122.600;2023-05-10T04:43:41;13.30;1.00
1361;DHT22;674;45.552;-122.600;2023-05-10T04:46:09;13.30;1.00
1361;DHT22;674;45.552;-122.600;2023-05-10T04:48:38;13.30;1.00
1361;DHT22;674;45.552;-122.600;2023-05-10T04:51:06;13.40;1.00
1361;DHT22;674;45.552;-122.600;2023-05-10T04:53:34;13.30;1.00
1361;DHT22;674;45.552;-122.600;2023-05-10T04:56:04;13.30;1.00
1361;DHT22;674;45.552;-122.600;2023-05-10T04:58:32;13.40;1.00
1361;DHT22;674;45.552;-122.600;2023-05-10T05:01:08;13.40;1.00
1361;DHT22;674;45.552;-122.600;2023-05-10T05:03:37;13.40;1.00
1361;DHT22;674;45.552;-122.600;2023-05-10T05:06:06;13.40;1.00
1361;DHT22;674;45.552;-122.600;2023-05-10T05:08:35;13.40;1.00
1361;DHT22;674;45.552;-122.600;2023-05-10T05:11:03;13.40;1.00
1361;DHT22;674;45.552;-122.600;2023-05-10T05:13:32;13.50;1.00
1361;DHT22;674;45.552;-122.600;2023-05-10T05:16:01;13.50;1.00
1361;DHT22;674;45.552;-122.600;2023-05-10T05:18:30;13.40;1.00
1361;DHT22;674;45.552;-122.600;2023-05-10T05:20:59;13.40;1.00
1361;DHT22;674;45.552;-122.600;2023-05-10T05:23:27;13.30;1.00
1361;DHT22;674;45.552;-122.600;2023-05-10T05:25:55;13.30;1.00
1361;DHT22;674;45.552;-122.600;2023-05-10T05:28:24;13.40;1.00
1361;DHT22;674;45.552;-122.600;2023-05-10T05:30:52;13.40;1.00
1361;DHT22;674;45.552;-122.600;2023-05-10T05:33:20;13.20;1.00
1361;DHT22;674;45.552;-122.600;2023-05-10T05:35:49;13.00;1.00
1361;DHT22;674;45.552;-122.600;2023-05-10T05:38:18;13.00;1.00
1361;DHT22;674;45.552;-122.600;2023-05-10T05:40:46;13.10;1.00
1361;DHT22;674;45.552;-122.600;2023-05-10T05:43:15;13.10;1.00
1361;DHT22;674;45.552;-122.600;2023-05-10T05:45:43;13.20;1.00
1361;DHT22;674;45.552;-122.600;2023-05-10T05:48:11;13.10;1.00
1361;DHT22;674;45.552;-122.600;2023-05-10T05:50:40;13.10;1.00
1361;DHT22;674;45.552;-122.600;2023-05-10T05:53:09;13.10;1.00
1361;DHT22;674;45.552;-122.600;2023-05-10T05:55:37;13.00;1.00
1361;DHT22;674;45.552;-122.600;2023-05-10T05:58:06;13.00;1.00
1361;DHT22;674;45.552;-122.600;2023-05-10T06:00:34;13.00;1.00
1361;DHT22;674;45.552;-122.600;2023-05-10T06:03:03;12.90;1.00
1361;DHT22;674;45.552;-122.600;2023-05-10T06:05:31;12.80;1.00
1361;DHT22;674;45.552;-122.600;2023-05-10T06:08:00;12.80;1.00
1361;DHT22;674;45.552;-122.600;2023-05-10T06:10:28;12.70;1.00
1361;DHT22;674;45.552;-122.600;2023-05-10T06:12:58;12.70;1.00
1361;DHT22;674;45.552;-122.600;2023-05-10T06:15:27;12.70;1.00
1361;DHT22;674;45.552;-122.600;2023-05-10T06:17:55;12.60;1.00
1361;DHT22;674;45.552;-122.600;2023-05-10T06:20:24;12.60;1.00
1361;DHT22;674;45.552;-122.600;2023-05-10T06:22:52;12.50;1.00
1361;DHT22;674;45.552;-122.600;2023-05-10T06:25:20;12.40;1.00
1361;DHT22;674;45.552;-122.600;2023-05-10T06:27:49;12.40;1.00
1361;DHT22;674;45.552;-122.600;2023-05-10T06:30:20;12.40;1.00
1361;DHT22;674;45.552;-122.600;2023-05-10T06:32:50;12.40;1.00
1361;DHT22;674;45.552;-122.600;2023-05-10T06:35:19;12.40;1.00
1361;DHT22;674;45.552;-122.600;2023-05-10T06:37:48;12.30;1.00
1361;DHT22;674;45.552;-122.600;2023-05-10T06:40:17;12.20;1.00
1361;DHT22;674;45.552;-122.600;2023-05-10T06:42:47;12.20;1.00
1361;DHT22;674;45.552;-122.600;2023-05-10T06:45:15;12.20;1.00
1361;DHT22;674;45.552;-122.600;2023-05-10T06:47:44;12.20;1.00
1361;DHT22;674;45.552;-122.600;2023-05-10T06:50:13;12.20;1.00
1361;DHT22;674;45.552;-122.600;2023-05-10T06:52:42;12.10;1.00
1361;DHT22;674;45.552;-122.600;2023-05-10T06:55:10;12.10;1.00
1361;DHT22;674;45.552;-122.600;2023-05-10T06:57:39;12.00;1.00
1361;DHT22;674;45.552;-122.600;2023-05-10T07:00:07;12.10;1.00
1361;DHT22;674;45.552;-122.600;2023-05-10T07:02:37;12.00;1.00
1361;DHT22;674;45.552;-122.600;2023-05-10T07:05:06;12.00;1.00
1361;DHT22;674;45.552;-122.600;2023-05-10T07:07:35;11.90;1.00
1361;DHT22;674;45.552;-122.600;2023-05-10T07:10:03;12.00;1.00
1361;DHT22;674;45.552;-122.600;2023-05-10T07:12:32;11.90;1.00
1361;DHT22;674;45.552;-122.600;2023-05-10T07:15:00;11.80;1.00
1361;DHT22;674;45.552;-122.600;2023-05-10T07:17:29;11.90;1.00
1361;DHT22;674;45.552;-122.600;2023-05-10T07:19:57;11.80;1.00
1361;DHT22;674;45.552;-122.600;2023-05-10T07:22:26;11.80;1.00
1361;DHT22;674;45.552;-122.600;2023-05-10T07:24:54;11.80;1.00
1361;DHT22;674;45.552;-122.600;2023-05-10T07:27:23;11.70;1.00
1361;DHT22;674;45.552;-122.600;2023-05-10T07:29:51;11.70;1.00
1361;DHT22;674;45.552;-122.600;2023-05-10T07:32:19;11.60;1.00
1361;DHT22;674;45.552;-122.600;2023-05-10T07:34:48;11.60;1.00
1361;DHT22;674;45.552;-122.600;2023-05-10T07:37:16;11.50;1.00
1361;DHT22;674;45.552;-122.600;2023-05-10T07:39:45;11.50;1.00
1361;DHT22;674;45.552;-122.600;2023-05-10T07:42:13;11.40;1.00
1361;DHT22;674;45.552;-122.600;2023-05-10T07:44:41;11.40;1.00
1361;DHT22;674;45.552;-122.600;2023-05-10T07:47:11;11.30;1.00
1361;DHT22;674;45.552;-122.600;2023-05-10T07:49:39;11.20;1.00
1361;DHT22;674;45.552;-122.600;2023-05-10T07:52:07;11.20;1.00
1361;DHT22;674;45.552;-122.600;2023-05-10T07:54:36;11.20;1.00
1361;DHT22;674;45.552;-122.600;2023-05-10T07:57:05;11.20;1.00
1361;DHT22;674;45.552;-122.600;2023-05-10T07:59:34;11.20;1.00
1361;DHT22;674;45.552;-122.600;2023-05-10T08:02:02;11.00;1.00
1361;DHT22;674;45.552;-122.600;2023-05-10T08:04:30;11.10;1.00
1361;DHT22;674;45.552;-122.600;2023-05-10T08:06:59;11.10;1.00
1361;DHT22;674;45.552;-122.600;2023-05-10T08:09:27;11.10;1.00
1361;DHT22;674;45.552;-122.600;2023-05-10T08:11:56;11.00;1.00
1361;DHT22;674;45.552;-122.600;2023-05-10T08:14:24;11.00;1.00
1361;DHT22;674;45.552;-122.600;2023-05-10T08:16:52;10.90;1.00
1361;DHT22;674;45.552;-122.600;2023-05-10T08:19:21;10.90;1.00
1361;DHT22;674;45.552;-122.600;2023-05-10T08:21:50;10.80;1.00
1361;DHT22;674;45.552;-122.600;2023-05-10T08:24:18;10.80;1.00
1361;DHT22;674;45.552;-122.600;2023-05-10T08:26:47;10.80;1.00
1361;DHT22;674;45.552;-122.600;2023-05-10T08:29:15;10.70;1.00
1361;DHT22;674;45.552;-122.600;2023-05-10T08:31:44;10.70;1.00
1361;DHT22;674;45.552;-122.600;2023-05-10T08:34:13;10.60;1.00
1361;DHT22;674;45.552;-122.600;2023-05-10T08:36:41;10.60;1.00
1361;DHT22;674;45.552;-122.600;2023-05-10T08:39:09;10.50;3.80
1361;DHT22;674;45.552;-122.600;2023-05-10T08:41:58;10.50;2.60
1361;DHT22;674;45.552;-122.600;2023-05-10T08:44:30;10.30;9.20
1361;DHT22;674;45.552;-122.600;2023-05-10T08:46:59;10.20;16.80
1361;DHT22;674;45.552;-122.600;2023-05-10T08:49:32;10.20;19.40
1361;DHT22;674;45.552;-122.600;2023-05-10T08:52:03;10.20;24.60
1361;DHT22;674;45.552;-122.600;2023-05-10T08:54:33;10.30;22.80
1361;DHT22;674;45.552;-122.600;2023-05-10T08:57:02;10.30;16.90
1361;DHT22;674;45.552;-122.600;2023-05-10T08:59:30;10.20;21.10
1361;DHT22;674;45.552;-122.600;2023-05-10T09:02:00;10.20;21.10
1361;DHT22;674;45.552;-122.600;2023-05-10T09:04:29;10.20;23.30
1361;DHT22;674;45.552;-122.600;2023-05-10T09:06:58;10.10;29.30
1361;DHT22;674;45.552;-122.600;2023-05-10T09:09:27;10.20;24.40
1361;DHT22;674;45.552;-122.600;2023-05-10T09:11:56;10.20;18.80
1361;DHT22;674;45.552;-122.600;2023-05-10T09:14:25;10.20;19.30
1361;DHT22;674;45.552;-122.600;2023-05-10T09:16:54;10.20;21.90
1361;DHT22;674;45.552;-122.600;2023-05-10T09:19:23;10.10;25.10
1361;DHT22;674;45.552;-122.600;2023-05-10T09:21:51;10.00;29.10
1361;DHT22;674;45.552;-122.600;2023-05-10T09:24:20;10.00;29.30
1361;DHT22;674;45.552;-122.600;2023-05-10T09:26:53;10.00;30.00
1361;DHT22;674;45.552;-122.600;2023-05-10T09:29:21;9.90;37.90
1361;DHT22;674;45.552;-122.600;2023-05-10T09:31:53;9.80;48.90
1361;DHT22;674;45.552;-122.600;2023-05-10T09:34:31;9.80;48.90
1361;DHT22;674;45.552;-122.600;2023-05-10T09:37:01;9.80;52.20
1361;DHT22;674;45.552;-122.600;2023-05-10T09:39:35;9.80;58.20
1361;DHT22;674;45.552;-122.600;2023-05-10T09:42:06;9.80;52.10
1361;DHT22;674;45.552;-122.600;2023-05-10T09:44:35;9.60;53.20
1361;DHT22;674;45.552;-122.600;2023-05-10T09:47:04;9.70;58.80
1361;DHT22;674;45.552;-122.600;2023-05-10T09:49:32;9.70;59.80
1361;DHT22;674;45.552;-122.600;2023-05-10T09:52:03;9.70;61.80
1361;DHT22;674;45.552;-122.600;2023-05-10T09:54:32;9.60;56.20
1361;DHT22;674;45.552;-122.600;2023-05-10T09:57:01;9.50;59.30
1361;DHT22;674;45.552;-122.600;2023-05-10T09:59:32;9.30;72.20
1361;DHT22;674;45.552;-122.600;2023-05-10T10:02:02;9.20;87.20
1361;DHT22;674;45.552;-122.600;2023-05-10T10:04:31;9.10;92.10
1361;DHT22;674;45.552;-122.600;2023-05-10T10:07:04;9.10;94.10
1361;DHT22;674;45.552;-122.600;2023-05-10T10:09:34;9.10;93.80
1361;DHT22;674;45.552;-122.600;2023-05-10T10:12:03;9.00;94.20
1361;DHT22;674;45.552;-122.600;2023-05-10T10:14:32;8.80;99.90
1361;DHT22;674;45.552;-122.600;2023-05-10T10:17:02;8.90;99.90
1361;DHT22;674;45.552;-122.600;2023-05-10T10:19:35;9.00;99.90
1361;DHT22;674;45.552;-122.600;2023-05-10T10:22:04;9.10;99.90
1361;DHT22;674;45.552;-122.600;2023-05-10T10:24:33;8.90;99.90
1361;DHT22;674;45.552;-122.600;2023-05-10T10:27:23;8.80;99.90
1361;DHT22;674;45.552;-122.600;2023-05-10T10:32:55;8.70;99.90
1361;DHT22;674;45.552;-122.600;2023-05-10T10:35:36;8.70;99.90
1361;DHT22;674;45.552;-122.600;2023-05-10T10:38:08;8.60;99.90
1361;DHT22;674;45.552;-122.600;2023-05-10T10:40:37;8.60;99.90
1361;DHT22;674;45.552;-122.600;2023-05-10T10:43:27;8.60;99.90
1361;DHT22;674;45.552;-122.600;2023-05-10T10:46:25;8.60;99.90
1361;DHT22;674;45.552;-122.600;2023-05-10T10:49:11;8.40;99.90
1361;DHT22;674;45.552;-122.600;2023-05-10T10:51:40;8.50;99.90
1361;DHT22;674;45.552;-122.600;2023-05-10T10:54:28;8.60;99.90
1361;DHT22;674;45.552;-122.600;2023-05-10T10:57:13;8.60;99.90
1361;DHT22;674;45.552;-122.600;2023-05-10T10:59:45;8.60;99.90
1361;DHT22;674;45.552;-122.600;2023-05-10T11:11:14;8.60;99.90
1361;DHT22;674;45.552;-122.600;2023-05-10T11:13:45;8.60;99.90
1361;DHT22;674;45.552;-122.600;2023-05-10T11:16:26;8.50;99.90
1361;DHT22;674;45.552;-122.600;2023-05-10T11:19:02;8.50;99.90
1361;DHT22;674;45.552;-122.600;2023-05-10T11:21:32;8.60;99.90
1361;DHT22;674;45.552;-122.600;2023-05-10T11:24:01;8.60;99.90
1361;DHT22;674;45.552;-122.600;2023-05-10T11:26:37;8.50;99.90
1361;DHT22;674;45.552;-122.600;2023-05-10T11:29:05;8.50;99.90
1361;DHT22;674;45.552;-122.600;2023-05-10T11:31:34;8.50;99.90
1361;DHT22;674;45.552;-122.600;2023-05-10T11:34:02;8.30;99.90
1361;DHT22;674;45.552;-122.600;2023-05-10T11:36:35;8.20;99.90
1361;DHT22;674;45.552;-122.600;2023-05-10T11:39:05;8.40;99.90
1361;DHT22;674;45.552;-122.600;2023-05-10T11:41:33;8.20;99.90
1361;DHT22;674;45.552;-122.600;2023-05-10T11:44:02;8.10;99.90
1361;DHT22;674;45.552;-122.600;2023-05-10T11:46:30;8.20;99.90
1361;DHT22;674;45.552;-122.600;2023-05-10T11:49:00;8.20;99.90
1361;DHT22;674;45.552;-122.600;2023-05-10T11:51:32;8.10;99.90
1361;DHT22;674;45.552;-122.600;2023-05-10T11:54:01;8.00;99.90
1361;DHT22;674;45.552;-122.600;2023-05-10T11:56:33;8.00;99.90
1361;DHT22;674;45.552;-122.600;2023-05-10T11:59:01;8.30;99.90
1361;DHT22;674;45.552;-122.600;2023-05-10T12:01:30;8.20;99.90
1361;DHT22;674;45.552;-122.600;2023-05-10T12:03:59;8.20;99.90
1361;DHT22;674;45.552;-122.600;2023-05-10T12:06:30;8.30;99.90
1361;DHT22;674;45.552;-122.600;2023-05-10T12:09:01;8.30;99.90
1361;DHT22;674;45.552;-122.600;2023-05-10T12:11:37;8.30;99.90
1361;DHT22;674;45.552;-122.600;2023-05-10T12:14:10;8.30;99.90
1361;DHT22;674;45.552;-122.600;2023-05-10T12:16:38;8.40;99.90
1361;DHT22;674;45.552;-122.600;2023-05-10T12:19:07;8.30;99.90
1361;DHT22;674;45.552;-122.600;2023-05-10T12:21:36;8.40;99.90
1361;DHT22;674;45.552;-122.600;2023-05-10T12:24:07;8.30;99.90
1361;DHT22;674;45.552;-122.600;2023-05-10T12:26:36;8.30;99.90
1361;DHT22;674;45.552;-122.600;2023-05-10T12:29:17;8.30;99.90
1361;DHT22;674;45.552;-122.600;2023-05-10T12:32:04;8.30;99.90
1361;DHT22;674;45.552;-122.600;2023-05-10T12:34:34;8.20;99.90
1361;DHT22;674;45.552;-122.600;2023-05-10T12:37:04;8.20;99.90
1361;DHT22;674;45.552;-122.600;2023-05-10T12:39:44;8.20;99.20
1361;DHT22;674;45.552;-122.600;2023-05-10T12:42:12;8.10;99.90
1361;DHT22;674;45.552;-122.600;2023-05-10T12:44:40;7.90;99.90
1361;DHT22;674;45.552;-122.600;2023-05-10T12:47:09;7.80;99.90
1361;DHT22;674;45.552;-122.600;2023-05-10T12:49:37;7.70;99.90
1361;DHT22;674;45.552;-122.600;2023-05-10T12:52:06;7.60;99.90
1361;DHT22;674;45.552;-122.600;2023-05-10T12:54:34;7.90;99.90
1361;DHT22;674;45.552;-122.600;2023-05-10T12:57:02;7.80;99.90
1361;DHT22;674;45.552;-122.600;2023-05-10T12:59:31;7.70;99.90
1361;DHT22;674;45.552;-122.600;2023-05-10T13:02:01;8.00;99.90
1361;DHT22;674;45.552;-122.600;2023-05-10T13:04:30;7.80;99.90
1361;DHT22;674;45.552;-122.600;2023-05-10T13:06:58;7.80;99.90
1361;DHT22;674;45.552;-122.600;2023-05-10T13:09:27;7.70;99.90
1361;DHT22;674;45.552;-122.600;2023-05-10T13:11:58;7.80;99.90
1361;DHT22;674;45.552;-122.600;2023-05-10T13:14:26;7.90;99.90
1361;DHT22;674;45.552;-122.600;2023-05-10T13:16:55;8.30;99.90
1361;DHT22;674;45.552;-122.600;2023-05-10T13:19:23;8.30;99.90
1361;DHT22;674;45.552;-122.600;2023-05-10T13:21:52;8.10;99.90
1361;DHT22;674;45.552;-122.600;2023-05-10T13:24:20;8.10;99.90
1361;DHT22;674;45.552;-122.600;2023-05-10T13:26:50;8.20;99.90
1361;DHT22;674;45.552;-122.600;2023-05-10T13:29:18;8.20;99.90
1361;DHT22;674;45.552;-122.600;2023-05-10T13:31:47;8.10;99.90
1361;DHT22;674;45.552;-122.600;2023-05-10T13:34:15;8.30;99.90
1361;DHT22;674;45.552;-122.600;2023-05-10T13:36:43;8.60;99.90
1361;DHT22;674;45.552;-122.600;2023-05-10T13:39:12;8.80;99.90
1361;DHT22;674;45.552;-122.600;2023-05-10T13:41:41;9.10;99.90
1361;DHT22;674;45.552;-122.600;2023-05-10T13:44:11;9.20;99.90
1361;DHT22;674;45.552;-122.600;2023-05-10T13:46:42;9.50;99.90
1361;DHT22;674;45.552;-122.600;2023-05-10T13:49:11;9.50;98.40
1361;DHT22;674;45.552;-122.600;2023-05-10T13:51:39;9.80;96.50
1361;DHT22;674;45.552;-122.600;2023-05-10T13:54:08;10.10;90.80
1361;DHT22;674;45.552;-122.600;2023-05-10T13:56:39;10.30;80.90
1361;DHT22;674;45.552;-122.600;2023-05-10T13:59:11;10.30;72.00
1361;DHT22;674;45.552;-122.600;2023-05-10T14:01:40;10.30;63.00
1361;DHT22;674;45.552;-122.600;2023-05-10T14:04:09;10.40;50.90
1361;DHT22;674;45.552;-122.600;2023-05-10T14:06:38;10.70;42.50
1361;DHT22;674;45.552;-122.600;2023-05-10T14:09:06;10.60;24.70
1361;DHT22;674;45.552;-122.600;2023-05-10T14:11:34;10.80;39.70
1361;DHT22;674;45.552;-122.600;2023-05-10T14:14:03;10.60;29.60
1361;DHT22;674;45.552;-122.600;2023-05-10T14:16:31;10.90;21.00
1361;DHT22;674;45.552;-122.600;2023-05-10T14:18:59;11.20;12.20
1361;DHT22;674;45.552;-122.600;2023-05-10T14:21:28;11.30;15.60
1361;DHT22;674;45.552;-122.600;2023-05-10T14:23:58;11.60;6.80
1361;DHT22;674;45.552;-122.600;2023-05-10T14:26:26;11.70;1.00
1361;DHT22;674;45.552;-122.600;2023-05-10T14:28:55;12.00;1.00
1361;DHT22;674;45.552;-122.600;2023-05-10T14:31:24;12.10;1.00
1361;DHT22;674;45.552;-122.600;2023-05-10T14:33:53;12.20;1.00
1361;DHT22;674;45.552;-122.600;2023-05-10T14:36:22;12.50;1.00
1361;DHT22;674;45.552;-122.600;2023-05-10T14:38:50;12.50;1.00
1361;DHT22;674;45.552;-122.600;2023-05-10T14:41:19;12.80;1.00
1361;DHT22;674;45.552;-122.600;2023-05-10T14:43:47;13.00;1.00
1361;DHT22;674;45.552;-122.600;2023-05-10T14:46:16;13.00;1.00
1361;DHT22;674;45.552;-122.600;2023-05-10T14:48:44;13.40;1.00
1361;DHT22;674;45.552;-122.600;2023-05-10T14:51:13;13.40;1.00
1361;DHT22;674;45.552;-122.600;2023-05-10T14:53:42;13.50;1.00
1361;DHT22;674;45.552;-122.600;2023-05-10T14:56:10;13.40;1.00
1361;DHT22;674;45.552;-122.600;2023-05-10T14:58:38;13.60;1.00
1361;DHT22;674;45.552;-122.600;2023-05-10T15:01:07;13.50;1.00
1361;DHT22;674;45.552;-122.600;2023-05-10T15:03:35;13.70;1.00
1361;DHT22;674;45.552;-122.600;2023-05-10T15:06:05;14.00;1.00
1361;DHT22;674;45.552;-122.600;2023-05-10T15:08:33;14.50;1.00
1361;DHT22;674;45.552;-122.600;2023-05-10T15:11:02;14.50;1.00
1361;DHT22;674;45.552;-122.600;2023-05-10T15:13:30;14.90;1.00
1361;DHT22;674;45.552;-122.600;2023-05-10T15:15:59;15.80;1.00
1361;DHT22;674;45.552;-122.600;2023-05-10T15:18:27;17.10;1.00
1361;DHT22;674;45.552;-122.600;2023-05-10T15:20:56;19.20;1.00
1361;DHT22;674;45.552;-122.600;2023-05-10T15:23:25;20.70;1.00
1361;DHT22;674;45.552;-122.600;2023-05-10T15:25:54;21.50;1.00
1361;DHT22;674;45.552;-122.600;2023-05-10T15:28:23;22.90;1.00
1361;DHT22;674;45.552;-122.600;2023-05-10T15:30:51;23.40;1.00
1361;DHT22;674;45.552;-122.600;2023-05-10T15:33:20;24.00;1.00
1361;DHT22;674;45.552;-122.600;2023-05-10T15:35:48;25.00;1.00
1361;DHT22;674;45.552;-122.600;2023-05-10T15:38:16;24.90;1.00
1361;DHT22;674;45.552;-122.600;2023-05-10T15:40:45;23.40;1.00
1361;DHT22;674;45.552;-122.600;2023-05-10T15:43:14;25.90;1.00
1361;DHT22;674;45.552;-122.600;2023-05-10T15:45:42;26.60;1.00
1361;DHT22;674;45.552;-122.600;2023-05-10T15:48:11;28.70;1.00
1361;DHT22;674;45.552;-122.600;2023-05-10T15:50:40;28.30;1.00
1361;DHT22;674;45.552;-122.600;2023-05-10T15:53:08;27.80;1.00
1361;DHT22;674;45.552;-122.600;2023-05-10T15:55:36;27.40;1.00
1361;DHT22;674;45.552;-122.600;2023-05-10T15:58:04;27.40;1.00
1361;DHT22;674;45.552;-122.600;2023-05-10T16:00:33;28.50;1.00
1361;DHT22;674;45.552;-122.600;2023-05-10T16:03:01;29.40;1.00
1361;DHT22;674;45.552;-122.600;2023-05-10T16:05:30;30.10;1.00
1361;DHT22;674;45.552;-122.600;2023-05-10T16:08:00;29.80;1.00
1361;DHT22;674;45.552;-122.600;2023-05-10T16:10:31;28.70;1.00
1361;DHT22;674;45.552;-122.600;2023-05-10T16:13:00;28.90;1.00
1361;DHT22;674;45.552;-122.600;2023-05-10T16:15:30;30.20;1.00
1361;DHT22;674;45.552;-122.600;2023-05-10T16:17:58;29.50;1.00
1361;DHT22;674;45.552;-122.600;2023-05-10T16:20:27;28.70;1.00
1361;DHT22;674;45.552;-122.600;2023-05-10T16:22:57;28.90;1.00
1361;DHT22;674;45.552;-122.600;2023-05-10T16:25:26;29.50;1.00
1361;DHT22;674;45.552;-122.600;2023-05-10T16:27:55;29.80;1.00
1361;DHT22;674;45.552;-122.600;2023-05-10T16:30:23;30.10;1.00
1361;DHT22;674;45.552;-122.600;2023-05-10T16:32:55;30.50;1.00